createdAt,value
2024-02-16T00:02:26.838Z,70.11
2024-02-16T00:04:57.876Z,69.31
2024-02-16T00:07:27.862Z,70.91
2024-02-16T00:09:55.996Z,70.59
2024-02-16T00:12:27.945Z,71.08
2024-02-16T00:15:10.123Z,72.30
2024-02-16T00:17:38.845Z,73.34
2024-02-16T00:20:13.830Z,71.87
2024-02-16T00:22:46.051Z,71.41
2024-02-16T00:25:19.295Z,73.54
2024-02-16T00:27:51.407Z,72.67
2024-02-16T00:30:19.985Z,72.25
2024-02-16T00:32:48.939Z,72.00
2024-02-16T00:35:19.131Z,71.87
2024-02-16T00:37:47.907Z,72.27
2024-02-16T00:40:16.273Z,70.84
2024-02-16T00:42:47.391Z,72.78
2024-02-16T00:45:19.703Z,70.04
2024-02-16T00:47:50.078Z,69.25
2024-02-16T00:50:24.929Z,68.78
2024-02-16T00:52:52.916Z,69.14
2024-02-16T00:55:21.183Z,70.47
2024-02-16T00:57:50.373Z,71.39
2024-02-16T01:00:27.012Z,72.65
2024-02-16T01:02:56.343Z,70.02
2024-02-16T01:05:34.435Z,68.96
2024-02-16T01:08:03.074Z,68.68
2024-02-16T01:10:31.952Z,70.20
2024-02-16T01:12:59.836Z,71.45
2024-02-16T01:15:42.537Z,72.49
2024-02-16T01:18:11.027Z,72.54
2024-02-16T01:20:42.096Z,71.44
2024-02-16T01:23:10.410Z,72.84
2024-02-16T01:25:38.849Z,73.97
2024-02-16T01:28:08.887Z,72.23
2024-02-16T01:30:38.138Z,72.21
2024-02-16T01:33:07.579Z,71.18
2024-02-16T01:35:37.548Z,69.91
2024-02-16T01:38:12.337Z,71.84
2024-02-16T01:40:43.470Z,72.69
2024-02-16T01:43:11.450Z,74.09
2024-02-16T01:45:41.025Z,74.16
2024-02-16T01:48:10.363Z,73.84
2024-02-16T01:50:40.523Z,74.62
2024-02-16T01:53:14.036Z,74.71
2024-02-16T01:55:44.430Z,74.25
2024-02-16T01:58:15.497Z,75.54
2024-02-16T02:00:45.077Z,75.96
2024-02-16T02:03:17.066Z,75.93
2024-02-16T02:05:53.818Z,75.06
2024-02-16T02:08:37.395Z,75.22
2024-02-16T02:11:06.989Z,75.39
2024-02-16T02:13:35.171Z,74.89
2024-02-16T02:16:11.931Z,74.48
2024-02-16T02:18:45.162Z,74.30
2024-02-16T02:21:15.752Z,74.76
2024-02-16T02:23:49.253Z,76.78
2024-02-16T02:26:18.844Z,73.75
2024-02-16T02:28:49.982Z,73.99
2024-02-16T02:31:20.010Z,74.12
2024-02-16T02:33:58.220Z,74.55
2024-02-16T02:36:26.822Z,74.76
2024-02-16T02:39:02.322Z,75.58
2024-02-16T02:41:31.351Z,73.81
2024-02-16T02:44:03.897Z,73.28
2024-02-16T02:46:34.397Z,72.57
2024-02-16T02:49:04.819Z,73.71
2024-02-16T02:51:36.334Z,73.92
2024-02-16T02:54:09.674Z,74.21
2024-02-16T02:56:39.388Z,74.64
2024-02-16T02:59:08.107Z,75.12
2024-02-16T03:01:40.419Z,75.46
2024-02-16T03:04:11.535Z,76.25
2024-02-16T03:06:42.442Z,74.95
2024-02-16T03:09:19.880Z,74.00
2024-02-16T03:11:49.030Z,74.44
2024-02-16T03:14:19.118Z,75.60
2024-02-16T03:16:48.092Z,75.61
2024-02-16T03:19:17.579Z,74.65
2024-02-16T03:21:45.810Z,74.66
2024-02-16T03:24:17.950Z,75.52
2024-02-16T03:26:48.216Z,76.77
2024-02-16T03:29:18.181Z,77.22
2024-02-16T03:31:48.808Z,76.59
2024-02-16T03:34:20.008Z,75.41
2024-02-16T03:36:48.882Z,75.40
2024-02-16T03:39:21.684Z,77.26
2024-02-16T03:41:52.241Z,76.57
2024-02-16T03:44:20.402Z,78.03
2024-02-16T03:46:51.336Z,78.35
2024-02-16T03:49:20.695Z,77.42
2024-02-16T03:51:52.008Z,76.54
2024-02-16T03:54:22.573Z,77.31
2024-02-16T03:56:50.530Z,75.71
2024-02-16T03:59:21.946Z,75.77
2024-02-16T04:01:49.856Z,76.34
2024-02-16T04:04:20.782Z,78.13
2024-02-16T04:06:52.697Z,77.92
2024-02-16T04:09:23.993Z,78.87
2024-02-16T04:11:52.953Z,78.08
2024-02-16T04:14:22.648Z,78.17
2024-02-16T04:16:51.428Z,78.86
2024-02-16T04:19:19.580Z,78.17
2024-02-16T04:21:47.622Z,79.20
2024-02-16T04:24:18.585Z,79.06
2024-02-16T04:26:50.295Z,77.26
2024-02-16T04:29:19.914Z,77.85
2024-02-16T04:31:47.884Z,78.10
2024-02-16T04:34:17.643Z,77.93
2024-02-16T04:36:47.099Z,79.17
2024-02-16T04:39:16.069Z,79.59
2024-02-16T04:41:44.440Z,79.47
2024-02-16T04:44:14.467Z,79.04
2024-02-16T04:46:42.717Z,77.58
2024-02-16T04:49:12.295Z,77.44
2024-02-16T04:51:44.320Z,77.46
2024-02-16T04:54:15.488Z,78.62
2024-02-16T04:56:44.954Z,78.80
2024-02-16T04:59:15.649Z,79.22
2024-02-16T05:01:48.859Z,77.98
2024-02-16T05:04:21.051Z,79.94
2024-02-16T05:06:50.746Z,77.50
2024-02-16T05:09:21.694Z,79.30
2024-02-16T05:11:53.291Z,79.15
2024-02-16T05:14:25.132Z,77.94
2024-02-16T05:16:54.278Z,76.42
2024-02-16T05:19:23.370Z,76.59
2024-02-16T05:21:52.906Z,79.16
2024-02-16T05:24:22.640Z,78.68
2024-02-16T05:26:52.985Z,78.80
2024-02-16T05:29:23.566Z,78.19
2024-02-16T05:31:53.840Z,78.03
2024-02-16T05:34:22.606Z,78.06
2024-02-16T05:36:52.242Z,79.03
2024-02-16T05:39:32.852Z,80.51
2024-02-16T05:42:01.486Z,79.82
2024-02-16T05:44:34.411Z,79.82
2024-02-16T05:47:04.603Z,80.21
2024-02-16T05:49:33.597Z,80.85
2024-02-16T05:52:20.220Z,80.35
2024-02-16T05:54:48.976Z,81.05
2024-02-16T05:57:17.738Z,80.77
2024-02-16T05:59:53.078Z,80.56
2024-02-16T06:02:22.552Z,81.08
2024-02-16T06:04:51.173Z,80.17
2024-02-16T06:07:22.218Z,79.24
2024-02-16T06:09:55.387Z,79.74
2024-02-16T06:12:26.699Z,79.51
2024-02-16T06:15:01.310Z,80.31
2024-02-16T06:17:30.507Z,80.07
2024-02-16T06:20:00.948Z,80.39
2024-02-16T06:22:29.368Z,80.34
2024-02-16T06:24:58.653Z,80.28
2024-02-16T06:27:27.459Z,80.28
2024-02-16T06:29:58.616Z,80.91
2024-02-16T06:32:27.350Z,81.29
2024-02-16T06:34:55.846Z,78.84
2024-02-16T06:37:27.293Z,79.44
2024-02-16T06:39:56.341Z,77.85
2024-02-16T06:42:24.702Z,77.22
2024-02-16T06:44:54.335Z,78.44
2024-02-16T06:47:27.276Z,78.13
2024-02-16T06:49:55.885Z,78.41
2024-02-16T06:52:25.533Z,79.84
2024-02-16T06:54:55.150Z,79.76
2024-02-16T06:57:30.868Z,80.72
2024-02-16T07:00:06.413Z,79.89
2024-02-16T07:02:37.176Z,79.38
2024-02-16T07:05:09.425Z,78.02
2024-02-16T07:07:38.576Z,78.85
2024-02-16T07:10:14.407Z,79.00
2024-02-16T07:12:43.849Z,77.90
2024-02-16T07:15:11.793Z,79.49
2024-02-16T07:17:42.969Z,78.52
2024-02-16T07:20:12.106Z,77.71
2024-02-16T07:22:42.165Z,77.39
2024-02-16T07:25:21.207Z,77.75
2024-02-16T07:27:50.082Z,76.83
2024-02-16T07:30:23.529Z,76.61
2024-02-16T07:33:00.385Z,76.56
2024-02-16T07:35:29.123Z,79.53
2024-02-16T07:37:57.065Z,80.27
2024-02-16T07:40:27.036Z,76.48
2024-02-16T07:42:55.481Z,78.75
2024-02-16T07:45:24.034Z,76.99
2024-02-16T07:47:53.254Z,77.31
2024-02-16T07:50:23.696Z,76.50
2024-02-16T07:52:55.521Z,77.56
2024-02-16T07:55:25.808Z,76.29
2024-02-16T07:57:54.326Z,76.19
2024-02-16T08:00:24.234Z,75.89
2024-02-16T08:02:53.744Z,77.01
2024-02-16T08:05:25.531Z,75.72
2024-02-16T08:08:04.746Z,73.71
2024-02-16T08:10:47.419Z,74.16
2024-02-16T08:13:24.415Z,74.05
2024-02-16T08:15:58.643Z,73.78
2024-02-16T08:18:30.062Z,71.65
2024-02-16T08:21:04.483Z,72.30
2024-02-16T08:23:35.752Z,69.31
2024-02-16T08:26:07.012Z,71.38
2024-02-16T08:28:36.745Z,70.77
2024-02-16T08:31:05.804Z,70.50
2024-02-16T08:33:38.467Z,68.58
2024-02-16T08:36:11.297Z,70.73
2024-02-16T08:38:45.168Z,66.64
2024-02-16T08:41:21.537Z,68.12
2024-02-16T08:43:53.204Z,66.94
2024-02-16T08:46:26.652Z,67.08
2024-02-16T08:49:03.265Z,66.49
2024-02-16T08:51:40.728Z,67.90
2024-02-16T08:54:11.021Z,67.57
2024-02-16T08:56:41.120Z,68.54
2024-02-16T08:59:12.207Z,67.45
2024-02-16T09:01:43.747Z,65.68
2024-02-16T09:07:04.670Z,66.29
2024-02-16T09:09:43.186Z,65.67
2024-02-16T09:12:16.753Z,66.83
2024-02-16T09:14:56.052Z,67.73
2024-02-16T09:17:26.173Z,65.88
2024-02-16T09:19:56.440Z,67.43
2024-02-16T09:25:06.722Z,67.43
2024-02-16T09:27:49.626Z,67.22
2024-02-16T09:30:23.775Z,66.83
2024-02-16T09:33:10.103Z,65.88
2024-02-16T09:35:41.330Z,67.43
2024-02-16T09:38:12.195Z,67.04
2024-02-16T09:40:42.442Z,65.92
2024-02-16T09:43:13.932Z,65.53
2024-02-16T09:45:42.326Z,63.60
2024-02-16T09:48:11.947Z,62.76
2024-02-16T09:50:40.131Z,62.65
2024-02-16T09:53:13.591Z,63.81
2024-02-16T09:55:43.243Z,63.63
2024-02-16T09:58:18.557Z,62.00
2024-02-16T10:00:52.625Z,64.06
2024-02-16T10:03:31.845Z,64.80
2024-02-16T10:06:13.512Z,63.84
2024-02-16T10:08:52.232Z,63.97
2024-02-16T10:11:28.978Z,63.44
2024-02-16T10:14:05.256Z,63.64
2024-02-16T10:16:36.398Z,63.47
2024-02-16T10:19:18.632Z,63.51
2024-02-16T10:21:52.718Z,63.34
2024-02-16T10:24:27.694Z,60.65
2024-02-16T10:26:59.120Z,58.19
2024-02-16T10:29:32.970Z,61.04
2024-02-16T10:32:04.752Z,62.51
2024-02-16T10:34:36.657Z,62.40
2024-02-16T10:37:11.023Z,60.89
2024-02-16T10:39:47.977Z,60.87
2024-02-16T10:42:22.032Z,59.19
2024-02-16T10:44:55.932Z,61.65
2024-02-16T10:47:28.326Z,61.44
2024-02-16T10:49:57.587Z,62.31
2024-02-16T10:52:28.540Z,58.46
2024-02-16T10:55:02.087Z,59.27
2024-02-16T10:57:30.777Z,61.58
2024-02-16T11:00:05.066Z,62.06
2024-02-16T11:03:00.793Z,61.04
2024-02-16T11:05:37.050Z,60.79
2024-02-16T11:08:07.047Z,60.35
2024-02-16T11:10:39.894Z,58.55
2024-02-16T11:13:09.099Z,60.65
2024-02-16T11:15:39.769Z,60.23
2024-02-16T11:18:13.817Z,58.65
2024-02-16T11:20:43.081Z,60.41
2024-02-16T11:23:16.374Z,59.18
2024-02-16T11:25:52.592Z,59.94
2024-02-16T11:28:22.023Z,58.74
2024-02-16T11:30:56.302Z,57.86
2024-02-16T11:33:29.888Z,59.84
2024-02-16T11:36:01.100Z,59.85
2024-02-16T11:38:30.284Z,58.81
2024-02-16T11:41:02.362Z,57.52
2024-02-16T11:43:33.615Z,59.27
2024-02-16T11:46:15.236Z,57.98
2024-02-16T11:48:44.597Z,58.76
2024-02-16T11:51:18.470Z,59.43
2024-02-16T11:54:02.582Z,58.75
2024-02-16T11:56:36.336Z,59.68
2024-02-16T11:59:06.195Z,58.44
2024-02-16T12:01:35.702Z,59.00
2024-02-16T12:04:06.119Z,59.80
2024-02-16T12:06:38.704Z,58.12
2024-02-16T12:09:06.928Z,57.86
2024-02-16T12:11:38.646Z,58.93
2024-02-16T12:14:14.121Z,58.44
2024-02-16T12:16:42.545Z,58.84
2024-02-16T12:19:12.240Z,56.75
2024-02-16T12:21:47.144Z,59.53
2024-02-16T12:24:16.066Z,57.63
2024-02-16T12:26:50.570Z,57.67
2024-02-16T12:29:19.098Z,55.20
2024-02-16T12:31:50.572Z,56.00
2024-02-16T12:34:19.785Z,55.53
2024-02-16T12:36:51.343Z,56.60
2024-02-16T12:39:24.042Z,55.99
2024-02-16T12:41:56.375Z,56.69
2024-02-16T12:44:26.501Z,54.07
2024-02-16T12:46:54.284Z,56.50
2024-02-16T12:49:24.052Z,56.79
2024-02-16T12:51:52.281Z,56.52
2024-02-16T12:54:23.002Z,56.50
2024-02-16T12:56:52.968Z,56.33
2024-02-16T12:59:25.496Z,56.48
2024-02-16T13:01:53.911Z,56.83
2024-02-16T13:04:24.019Z,55.72
2024-02-16T13:06:53.631Z,55.24
2024-02-16T13:09:22.008Z,56.88
2024-02-16T13:11:56.006Z,54.58
2024-02-16T13:14:28.932Z,55.53
2024-02-16T13:16:59.904Z,54.10
2024-02-16T13:19:28.310Z,54.83
2024-02-16T13:21:58.674Z,52.11
2024-02-16T13:24:29.721Z,53.12
2024-02-16T13:26:58.949Z,52.67
2024-02-16T13:29:29.334Z,54.11
2024-02-16T13:32:00.998Z,54.11
2024-02-16T13:34:29.027Z,54.27
2024-02-16T13:36:59.255Z,54.35
2024-02-16T13:39:28.538Z,56.73
2024-02-16T13:41:58.658Z,57.02
2024-02-16T13:44:29.518Z,54.67
2024-02-16T13:46:59.421Z,54.91
2024-02-16T13:49:27.276Z,56.31
2024-02-16T13:51:59.753Z,56.22
2024-02-16T13:54:27.924Z,55.06
2024-02-16T13:56:55.909Z,56.41
2024-02-16T13:59:25.288Z,54.64
2024-02-16T14:01:59.509Z,55.04
2024-02-16T14:04:28.369Z,55.60
2024-02-16T14:06:56.847Z,56.58
2024-02-16T14:09:30.261Z,57.33
2024-02-16T14:12:02.202Z,56.63
2024-02-16T14:14:37.087Z,55.20
2024-02-16T14:17:08.134Z,55.91
2024-02-16T14:19:38.754Z,57.52
2024-02-16T14:22:08.056Z,56.05
2024-02-16T14:24:36.261Z,56.13
2024-02-16T14:27:04.841Z,56.75
2024-02-16T14:29:33.199Z,55.82
2024-02-16T14:32:02.039Z,58.05
2024-02-16T14:34:33.878Z,57.94
2024-02-16T14:37:05.465Z,57.07
2024-02-16T14:39:35.309Z,57.74
2024-02-16T14:42:05.740Z,57.78
2024-02-16T14:44:33.781Z,58.75
2024-02-16T14:47:02.254Z,58.42
2024-02-16T14:49:32.401Z,58.30
2024-02-16T14:52:04.623Z,59.01
2024-02-16T14:54:34.108Z,58.23
2024-02-16T14:57:05.018Z,59.20
2024-02-16T14:59:32.888Z,58.88
2024-02-16T15:02:03.645Z,59.04
2024-02-16T15:04:32.304Z,59.13
2024-02-16T15:07:02.607Z,59.15
2024-02-16T15:09:31.908Z,59.17
2024-02-16T15:12:00.158Z,59.44
2024-02-16T15:14:35.409Z,60.41
2024-02-16T15:17:04.328Z,58.74
2024-02-16T15:19:33.864Z,60.50
2024-02-16T15:22:09.275Z,60.98
2024-02-16T15:24:39.345Z,59.71
2024-02-16T15:27:08.226Z,61.39
2024-02-16T15:29:43.595Z,60.39
2024-02-16T15:32:14.013Z,61.08
2024-02-16T15:34:45.339Z,60.14
2024-02-16T15:37:18.885Z,60.80
2024-02-16T15:39:47.117Z,60.98
2024-02-16T15:42:22.035Z,60.49
2024-02-16T15:44:55.075Z,62.96
2024-02-16T15:47:24.117Z,65.04
2024-02-16T15:49:57.339Z,67.76
2024-02-16T15:52:31.116Z,68.63
2024-02-16T15:55:01.077Z,68.65
2024-02-16T15:57:33.400Z,71.03
2024-02-16T16:00:04.442Z,72.06
2024-02-16T16:02:47.024Z,72.60
2024-02-16T16:05:17.047Z,72.41
2024-02-16T16:07:56.363Z,73.05
2024-02-16T16:10:24.587Z,72.57
2024-02-16T16:12:52.431Z,72.12
2024-02-16T16:15:20.838Z,72.03
2024-02-16T16:17:56.044Z,71.40
2024-02-16T16:20:26.790Z,71.59
2024-02-16T16:23:09.997Z,71.90
2024-02-16T16:25:39.131Z,72.52
2024-02-16T16:28:08.660Z,72.43
2024-02-16T16:30:36.877Z,72.26
2024-02-16T16:33:11.896Z,72.71
2024-02-16T16:35:44.391Z,72.69
2024-02-16T16:38:17.031Z,73.27
2024-02-16T16:40:45.167Z,72.68
2024-02-16T16:43:16.312Z,73.35
2024-02-16T16:45:46.912Z,73.32
2024-02-16T16:48:15.233Z,73.03
2024-02-16T16:50:46.226Z,72.75
2024-02-16T16:53:17.706Z,71.81
2024-02-16T16:55:49.623Z,72.38
2024-02-16T16:58:25.536Z,71.98
2024-02-16T17:00:56.527Z,71.95
2024-02-16T17:03:26.907Z,73.54
2024-02-16T17:05:57.580Z,72.79
2024-02-16T17:08:30.997Z,71.64
2024-02-16T17:11:02.781Z,70.50
2024-02-16T17:13:31.264Z,72.85
2024-02-16T17:16:03.480Z,71.58
2024-02-16T17:18:35.771Z,72.39
2024-02-16T17:21:05.959Z,71.85
2024-02-16T17:23:36.524Z,71.50
2024-02-16T17:26:13.717Z,72.44
2024-02-16T17:28:44.098Z,73.03
2024-02-16T17:31:13.148Z,74.40
2024-02-16T17:33:45.269Z,74.09
2024-02-16T17:36:14.184Z,76.13
2024-02-16T17:38:47.799Z,76.58
2024-02-16T17:41:36.566Z,77.89
2024-02-16T17:44:06.248Z,78.79
2024-02-16T17:46:36.044Z,81.41
2024-02-16T17:49:06.316Z,80.98
2024-02-16T17:51:42.564Z,81.60
2024-02-16T17:54:12.961Z,81.17
2024-02-16T17:56:43.659Z,82.71
2024-02-16T17:59:16.491Z,81.73
2024-02-16T18:01:47.116Z,83.81
2024-02-16T18:04:17.925Z,81.67
2024-02-16T18:06:48.855Z,84.86
2024-02-16T18:09:19.162Z,84.06
2024-02-16T18:11:49.371Z,84.46
2024-02-16T18:14:17.697Z,87.61
2024-02-16T18:16:46.303Z,87.03
2024-02-16T18:19:14.660Z,86.75
2024-02-16T18:21:45.821Z,86.67
2024-02-16T18:24:16.821Z,88.79
2024-02-16T18:26:46.516Z,88.14
2024-02-16T18:29:14.821Z,88.24
2024-02-16T18:31:44.488Z,88.88
2024-02-16T18:34:13.770Z,88.75
2024-02-16T18:36:45.554Z,87.49
2024-02-16T18:39:13.884Z,88.18
2024-02-16T18:41:44.378Z,88.52
2024-02-16T18:44:15.506Z,91.19
2024-02-16T18:46:46.141Z,90.24
2024-02-16T18:49:18.393Z,91.46
2024-02-16T18:51:50.694Z,90.61
2024-02-16T18:54:18.775Z,91.26
2024-02-16T18:56:47.714Z,90.26
2024-02-16T18:59:17.797Z,90.25
2024-02-16T19:01:45.847Z,91.21
2024-02-16T19:04:14.224Z,90.47
2024-02-16T19:06:44.567Z,90.44
2024-02-16T19:09:13.149Z,93.47
2024-02-16T19:11:41.951Z,92.28
2024-02-16T19:14:15.360Z,90.55
2024-02-16T19:16:46.379Z,90.78
2024-02-16T19:19:18.826Z,90.03
2024-02-16T19:21:47.243Z,90.09
2024-02-16T19:24:25.482Z,91.60
2024-02-16T19:27:01.685Z,91.62
2024-02-16T19:29:29.588Z,90.10
2024-02-16T19:32:01.225Z,90.95
2024-02-16T19:34:29.537Z,91.04
2024-02-16T19:36:58.986Z,92.01
2024-02-16T19:39:29.270Z,94.86
2024-02-16T19:42:00.425Z,94.02
2024-02-16T19:44:30.374Z,91.72
2024-02-16T19:47:00.608Z,93.55
2024-02-16T19:49:32.776Z,93.10
2024-02-16T19:52:02.373Z,91.93
2024-02-16T19:54:31.675Z,94.26
2024-02-16T19:57:01.498Z,93.26
2024-02-16T19:59:30.422Z,94.08
2024-02-16T20:01:59.179Z,93.82
2024-02-16T20:04:31.208Z,91.55
2024-02-16T20:06:59.391Z,94.36
2024-02-16T20:09:31.955Z,94.16
2024-02-16T20:12:00.993Z,94.32
2024-02-16T20:14:28.986Z,92.18
2024-02-16T20:16:57.182Z,94.59
2024-02-16T20:19:29.327Z,92.08
2024-02-16T20:22:00.055Z,93.25
2024-02-16T20:24:29.685Z,92.48
2024-02-16T20:27:01.360Z,92.88
2024-02-16T20:29:33.322Z,90.85
2024-02-16T20:32:05.381Z,92.14
2024-02-16T20:34:35.365Z,91.77
2024-02-16T20:37:05.561Z,91.08
2024-02-16T20:39:40.895Z,91.69
2024-02-16T20:42:12.722Z,91.06
2024-02-16T20:44:43.461Z,91.25
2024-02-16T20:47:16.098Z,89.97
2024-02-16T20:49:45.071Z,91.87
2024-02-16T20:52:15.635Z,93.26
2024-02-16T20:54:43.785Z,92.88
2024-02-16T20:57:12.272Z,94.81
2024-02-16T20:59:42.909Z,93.99
2024-02-16T21:02:15.976Z,90.99
2024-02-16T21:04:46.476Z,96.18
2024-02-16T21:07:17.883Z,94.37
2024-02-16T21:09:49.565Z,94.70
2024-02-16T21:12:18.684Z,94.12
2024-02-16T21:14:48.822Z,94.51
2024-02-16T21:17:18.534Z,92.51
2024-02-16T21:19:50.537Z,95.00
2024-02-16T21:22:19.716Z,92.86
2024-02-16T21:24:48.964Z,94.10
2024-02-16T21:27:17.904Z,94.29
2024-02-16T21:29:54.957Z,94.11
2024-02-16T21:32:29.277Z,95.14
2024-02-16T21:35:01.462Z,95.06
2024-02-16T21:37:36.730Z,95.70
2024-02-16T21:40:07.634Z,96.89
2024-02-16T21:42:37.812Z,95.64
2024-02-16T21:45:11.063Z,93.02
2024-02-16T21:47:50.035Z,92.84
2024-02-16T21:50:24.874Z,94.97
2024-02-16T21:52:55.474Z,93.00
2024-02-16T21:55:23.980Z,92.00
2024-02-16T21:57:55.031Z,93.11
2024-02-16T22:00:24.865Z,91.06
2024-02-16T22:02:53.454Z,90.74
2024-02-16T22:05:25.486Z,89.49
2024-02-16T22:07:56.931Z,88.84
2024-02-16T22:10:25.114Z,90.20
2024-02-16T22:12:54.863Z,90.04
2024-02-16T22:15:23.892Z,87.59
2024-02-16T22:17:57.781Z,88.72
2024-02-16T22:20:25.875Z,87.96
2024-02-16T22:22:56.101Z,88.67
2024-02-16T22:25:28.076Z,88.55
2024-02-16T22:27:56.409Z,86.70
2024-02-16T22:30:24.821Z,86.91
2024-02-16T22:32:52.985Z,87.26
2024-02-16T22:35:21.820Z,88.86
2024-02-16T22:37:50.482Z,86.26
2024-02-16T22:40:21.624Z,85.78
2024-02-16T22:42:52.572Z,85.32
2024-02-16T22:45:21.112Z,84.04
2024-02-16T22:47:49.330Z,84.31
2024-02-16T22:50:18.321Z,83.28
2024-02-16T22:52:46.391Z,83.50
2024-02-16T22:55:14.887Z,84.21
2024-02-16T22:57:44.288Z,84.66
2024-02-16T23:00:24.087Z,82.68
2024-02-16T23:02:53.176Z,83.11
2024-02-16T23:05:24.910Z,83.66
2024-02-16T23:07:54.635Z,82.56
2024-02-16T23:10:27.379Z,80.62
2024-02-16T23:12:55.743Z,79.63
2024-02-16T23:15:30.480Z,79.88
2024-02-16T23:18:00.160Z,79.77
2024-02-16T23:20:28.273Z,80.85
2024-02-16T23:23:01.427Z,80.65
2024-02-16T23:25:33.155Z,79.30
2024-02-16T23:28:03.914Z,78.98
2024-02-16T23:30:33.832Z,77.43
2024-02-16T23:33:08.861Z,77.54
2024-02-16T23:35:39.608Z,77.76
2024-02-16T23:38:08.745Z,78.48
2024-02-16T23:40:39.981Z,75.69
2024-02-16T23:43:14.637Z,75.52
2024-02-16T23:45:44.827Z,75.61
2024-02-16T23:48:14.730Z,74.41
2024-02-16T23:50:42.651Z,73.60
2024-02-16T23:53:12.514Z,75.48
2024-02-16T23:55:42.111Z,74.40
2024-02-16T23:58:11.678Z,75.97
